sensor_id;sensor_type;location;lat;lon;timestamp;P1;durP1;ratioP1;P2;durP2;ratioP2
69523;SDS011;56723;42.694;23.286;2022-11-06T00:01:44;37.88;;;24.42;;
69523;SDS011;56723;42.694;23.286;2022-11-06T00:04:11;37.15;;;23.95;;
69523;SDS011;56723;42.694;23.286;2022-11-06T00:06:38;39.88;;;27.67;;
69523;SDS011;56723;42.694;23.286;2022-11-06T00:09:16;44.97;;;24.83;;
69523;SDS011;56723;42.694;23.286;2022-11-06T00:11:44;45.10;;;29.92;;
69523;SDS011;56723;42.694;23.286;2022-11-06T00:14:12;40.75;;;27.67;;
69523;SDS011;56723;42.694;23.286;2022-11-06T00:16:39;46.13;;;28.35;;
69523;SDS011;56723;42.694;23.286;2022-11-06T00:19:08;35.00;;;26.03;;
69523;SDS011;56723;42.694;23.286;2022-11-06T00:21:35;42.42;;;26.25;;
69523;SDS011;56723;42.694;23.286;2022-11-06T00:24:03;46.17;;;28.95;;
69523;SDS011;56723;42.694;23.286;2022-11-06T00:26:32;37.13;;;27.00;;
69523;SDS011;56723;42.694;23.286;2022-11-06T00:29:00;37.63;;;25.88;;
69523;SDS011;56723;42.694;23.286;2022-11-06T00:31:29;37.05;;;24.58;;
69523;SDS011;56723;42.694;23.286;2022-11-06T00:33:59;35.80;;;24.35;;
69523;SDS011;56723;42.694;23.286;2022-11-06T00:36:27;40.58;;;26.70;;
69523;SDS011;56723;42.694;23.286;2022-11-06T00:38:58;38.55;;;23.23;;
69523;SDS011;56723;42.694;23.286;2022-11-06T00:41:26;33.33;;;23.45;;
69523;SDS011;56723;42.694;23.286;2022-11-06T00:43:57;36.75;;;23.42;;
69523;SDS011;56723;42.694;23.286;2022-11-06T00:46:25;39.10;;;24.63;;
69523;SDS011;56723;42.694;23.286;2022-11-06T00:48:52;36.08;;;22.35;;
69523;SDS011;56723;42.694;23.286;2022-11-06T00:51:25;39.00;;;24.00;;
69523;SDS011;56723;42.694;23.286;2022-11-06T00:53:57;36.63;;;24.27;;
69523;SDS011;56723;42.694;23.286;2022-11-06T00:58:52;30.17;;;19.70;;
69523;SDS011;56723;42.694;23.286;2022-11-06T01:01:22;35.10;;;22.15;;
69523;SDS011;56723;42.694;23.286;2022-11-06T01:03:51;35.53;;;21.88;;
69523;SDS011;56723;42.694;23.286;2022-11-06T01:06:21;34.20;;;23.73;;
69523;SDS011;56723;42.694;23.286;2022-11-06T01:08:50;31.15;;;22.13;;
69523;SDS011;56723;42.694;23.286;2022-11-06T01:11:19;36.22;;;22.48;;
69523;SDS011;56723;42.694;23.286;2022-11-06T01:13:49;35.03;;;20.85;;
69523;SDS011;56723;42.694;23.286;2022-11-06T01:16:17;35.00;;;20.77;;
69523;SDS011;56723;42.694;23.286;2022-11-06T01:18:44;35.03;;;22.25;;
69523;SDS011;56723;42.694;23.286;2022-11-06T01:21:13;33.35;;;23.05;;
69523;SDS011;56723;42.694;23.286;2022-11-06T01:23:42;36.85;;;24.27;;
69523;SDS011;56723;42.694;23.286;2022-11-06T01:26:10;32.85;;;21.95;;
69523;SDS011;56723;42.694;23.286;2022-11-06T01:28:38;32.80;;;23.52;;
69523;SDS011;56723;42.694;23.286;2022-11-06T01:31:08;33.97;;;22.95;;
69523;SDS011;56723;42.694;23.286;2022-11-06T01:33:37;37.75;;;23.33;;
69523;SDS011;56723;42.694;23.286;2022-11-06T01:36:05;35.53;;;22.85;;
69523;SDS011;56723;42.694;23.286;2022-11-06T01:38:35;33.47;;;22.35;;
69523;SDS011;56723;42.694;23.286;2022-11-06T01:41:02;35.00;;;23.63;;
69523;SDS011;56723;42.694;23.286;2022-11-06T01:46:17;36.95;;;27.83;;
69523;SDS011;56723;42.694;23.286;2022-11-06T01:48:52;42.28;;;26.73;;
69523;SDS011;56723;42.694;23.286;2022-11-06T01:51:26;39.58;;;24.38;;
69523;SDS011;56723;42.694;23.286;2022-11-06T01:56:21;35.88;;;24.70;;
69523;SDS011;56723;42.694;23.286;2022-11-06T01:58:50;41.40;;;25.70;;
69523;SDS011;56723;42.694;23.286;2022-11-06T02:01:18;34.88;;;23.58;;
69523;SDS011;56723;42.694;23.286;2022-11-06T02:03:51;33.25;;;21.27;;
69523;SDS011;56723;42.694;23.286;2022-11-06T02:06:23;31.15;;;22.10;;
69523;SDS011;56723;42.694;23.286;2022-11-06T02:08:50;26.98;;;19.83;;
69523;SDS011;56723;42.694;23.286;2022-11-06T02:11:17;24.38;;;16.48;;
69523;SDS011;56723;42.694;23.286;2022-11-06T02:25:12;17.63;;;10.30;;
69523;SDS011;56723;42.694;23.286;2022-11-06T02:27:42;20.85;;;10.63;;
69523;SDS011;56723;42.694;23.286;2022-11-06T02:30:13;15.65;;;8.98;;
69523;SDS011;56723;42.694;23.286;2022-11-06T02:32:59;15.52;;;7.25;;
69523;SDS011;56723;42.694;23.286;2022-11-06T02:35:29;14.70;;;8.68;;
69523;SDS011;56723;42.694;23.286;2022-11-06T02:38:02;15.50;;;8.15;;
69523;SDS011;56723;42.694;23.286;2022-11-06T02:40:35;13.40;;;8.43;;
69523;SDS011;56723;42.694;23.286;2022-11-06T02:43:07;15.10;;;7.88;;
69523;SDS011;56723;42.694;23.286;2022-11-06T02:45:46;14.15;;;9.50;;
69523;SDS011;56723;42.694;23.286;2022-11-06T02:48:16;15.82;;;8.23;;
69523;SDS011;56723;42.694;23.286;2022-11-06T02:50:48;13.38;;;8.13;;
69523;SDS011;56723;42.694;23.286;2022-11-06T02:53:19;11.95;;;7.85;;
69523;SDS011;56723;42.694;23.286;2022-11-06T02:55:49;13.20;;;7.00;;
69523;SDS011;56723;42.694;23.286;2022-11-06T02:58:20;12.43;;;6.82;;
69523;SDS011;56723;42.694;23.286;2022-11-06T03:00:56;13.88;;;8.07;;
69523;SDS011;56723;42.694;23.286;2022-11-06T03:03:32;13.45;;;7.47;;
69523;SDS011;56723;42.694;23.286;2022-11-06T03:06:22;12.75;;;7.07;;
69523;SDS011;56723;42.694;23.286;2022-11-06T03:08:55;13.45;;;7.85;;
69523;SDS011;56723;42.694;23.286;2022-11-06T03:11:30;16.20;;;8.15;;
69523;SDS011;56723;42.694;23.286;2022-11-06T03:17:11;10.23;;;7.00;;
69523;SDS011;56723;42.694;23.286;2022-11-06T03:23:09;16.75;;;9.25;;
69523;SDS011;56723;42.694;23.286;2022-11-06T03:25:43;15.30;;;9.65;;
69523;SDS011;56723;42.694;23.286;2022-11-06T03:28:36;17.17;;;10.18;;
69523;SDS011;56723;42.694;23.286;2022-11-06T03:31:05;15.35;;;8.70;;
69523;SDS011;56723;42.694;23.286;2022-11-06T03:33:38;13.80;;;9.27;;
69523;SDS011;56723;42.694;23.286;2022-11-06T03:36:14;15.90;;;8.35;;
69523;SDS011;56723;42.694;23.286;2022-11-06T03:38:46;13.13;;;7.90;;
69523;SDS011;56723;42.694;23.286;2022-11-06T03:41:22;12.85;;;8.07;;
69523;SDS011;56723;42.694;23.286;2022-11-06T03:44:12;14.15;;;8.25;;
69523;SDS011;56723;42.694;23.286;2022-11-06T03:46:44;15.02;;;7.78;;
69523;SDS011;56723;42.694;23.286;2022-11-06T03:49:20;12.60;;;7.53;;
69523;SDS011;56723;42.694;23.286;2022-11-06T03:51:54;15.07;;;8.82;;
69523;SDS011;56723;42.694;23.286;2022-11-06T03:54:28;11.32;;;7.50;;
69523;SDS011;56723;42.694;23.286;2022-11-06T03:57:04;11.57;;;8.10;;
69523;SDS011;56723;42.694;23.286;2022-11-06T03:59:47;13.73;;;8.52;;
69523;SDS011;56723;42.694;23.286;2022-11-06T04:02:18;14.07;;;7.88;;
69523;SDS011;56723;42.694;23.286;2022-11-06T04:04:50;14.00;;;8.15;;
69523;SDS011;56723;42.694;23.286;2022-11-06T04:07:22;13.45;;;7.18;;
69523;SDS011;56723;42.694;23.286;2022-11-06T04:09:59;15.88;;;8.52;;
69523;SDS011;56723;42.694;23.286;2022-11-06T04:12:49;12.60;;;7.70;;
69523;SDS011;56723;42.694;23.286;2022-11-06T04:15:39;16.38;;;8.23;;
69523;SDS011;56723;42.694;23.286;2022-11-06T04:18:12;17.27;;;7.82;;
69523;SDS011;56723;42.694;23.286;2022-11-06T04:21:29;14.50;;;7.95;;
69523;SDS011;56723;42.694;23.286;2022-11-06T04:26:51;12.68;;;8.32;;
69523;SDS011;56723;42.694;23.286;2022-11-06T04:32:21;12.25;;;7.82;;
69523;SDS011;56723;42.694;23.286;2022-11-06T04:35:20;15.40;;;8.10;;
69523;SDS011;56723;42.694;23.286;2022-11-06T04:37:59;16.83;;;9.32;;
69523;SDS011;56723;42.694;23.286;2022-11-06T04:40:34;14.88;;;8.60;;
69523;SDS011;56723;42.694;23.286;2022-11-06T04:43:58;14.27;;;8.82;;
69523;SDS011;56723;42.694;23.286;2022-11-06T04:46:21;17.13;;;10.02;;
69523;SDS011;56723;42.694;23.286;2022-11-06T04:48:53;20.60;;;9.68;;
69523;SDS011;56723;42.694;23.286;2022-11-06T04:51:21;15.20;;;9.13;;
69523;SDS011;56723;42.694;23.286;2022-11-06T04:53:51;16.15;;;10.57;;
69523;SDS011;56723;42.694;23.286;2022-11-06T04:56:20;16.08;;;9.50;;
69523;SDS011;56723;42.694;23.286;2022-11-06T04:58:54;14.95;;;10.57;;
69523;SDS011;56723;42.694;23.286;2022-11-06T05:01:21;18.58;;;9.82;;
69523;SDS011;56723;42.694;23.286;2022-11-06T05:03:48;13.55;;;8.88;;
69523;SDS011;56723;42.694;23.286;2022-11-06T05:06:15;19.35;;;10.35;;
69523;SDS011;56723;42.694;23.286;2022-11-06T05:08:42;15.35;;;9.25;;
69523;SDS011;56723;42.694;23.286;2022-11-06T05:11:09;21.08;;;11.60;;
69523;SDS011;56723;42.694;23.286;2022-11-06T05:13:36;15.93;;;10.48;;
69523;SDS011;56723;42.694;23.286;2022-11-06T05:16:04;14.93;;;10.90;;
69523;SDS011;56723;42.694;23.286;2022-11-06T05:18:31;14.07;;;9.95;;
69523;SDS011;56723;42.694;23.286;2022-11-06T05:21:01;14.98;;;10.77;;
69523;SDS011;56723;42.694;23.286;2022-11-06T05:23:47;13.88;;;10.07;;
69523;SDS011;56723;42.694;23.286;2022-11-06T05:26:14;19.50;;;10.55;;
69523;SDS011;56723;42.694;23.286;2022-11-06T05:28:41;20.75;;;10.80;;
69523;SDS011;56723;42.694;23.286;2022-11-06T05:31:08;17.30;;;10.73;;
69523;SDS011;56723;42.694;23.286;2022-11-06T05:33:35;16.48;;;9.98;;
69523;SDS011;56723;42.694;23.286;2022-11-06T05:36:03;20.30;;;10.95;;
69523;SDS011;56723;42.694;23.286;2022-11-06T05:38:31;21.05;;;9.98;;
69523;SDS011;56723;42.694;23.286;2022-11-06T05:40:58;19.25;;;10.73;;
69523;SDS011;56723;42.694;23.286;2022-11-06T05:43:25;14.70;;;9.38;;
69523;SDS011;56723;42.694;23.286;2022-11-06T05:45:52;16.50;;;11.50;;
69523;SDS011;56723;42.694;23.286;2022-11-06T05:48:19;14.77;;;10.07;;
69523;SDS011;56723;42.694;23.286;2022-11-06T05:50:46;21.10;;;11.48;;
69523;SDS011;56723;42.694;23.286;2022-11-06T05:53:13;14.10;;;10.80;;
69523;SDS011;56723;42.694;23.286;2022-11-06T05:55:41;15.30;;;10.45;;
69523;SDS011;56723;42.694;23.286;2022-11-06T05:58:09;17.77;;;10.60;;
69523;SDS011;56723;42.694;23.286;2022-11-06T06:00:37;16.42;;;12.00;;
69523;SDS011;56723;42.694;23.286;2022-11-06T06:03:03;12.85;;;10.40;;
69523;SDS011;56723;42.694;23.286;2022-11-06T06:05:30;16.35;;;11.75;;
69523;SDS011;56723;42.694;23.286;2022-11-06T06:07:57;15.15;;;10.55;;
69523;SDS011;56723;42.694;23.286;2022-11-06T06:10:24;20.13;;;11.60;;
69523;SDS011;56723;42.694;23.286;2022-11-06T06:12:51;14.77;;;11.35;;
69523;SDS011;56723;42.694;23.286;2022-11-06T06:15:18;17.63;;;11.57;;
69523;SDS011;56723;42.694;23.286;2022-11-06T06:17:45;16.55;;;10.98;;
69523;SDS011;56723;42.694;23.286;2022-11-06T06:20:12;16.02;;;10.48;;
69523;SDS011;56723;42.694;23.286;2022-11-06T06:22:39;17.58;;;10.98;;
69523;SDS011;56723;42.694;23.286;2022-11-06T06:25:06;15.63;;;10.63;;
69523;SDS011;56723;42.694;23.286;2022-11-06T06:27:47;15.65;;;11.77;;
69523;SDS011;56723;42.694;23.286;2022-11-06T06:30:14;23.10;;;12.27;;
69523;SDS011;56723;42.694;23.286;2022-11-06T06:32:41;19.27;;;12.00;;
69523;SDS011;56723;42.694;23.286;2022-11-06T06:35:09;19.25;;;11.93;;
69523;SDS011;56723;42.694;23.286;2022-11-06T06:37:36;16.52;;;12.93;;
69523;SDS011;56723;42.694;23.286;2022-11-06T06:40:04;17.77;;;12.80;;
69523;SDS011;56723;42.694;23.286;2022-11-06T06:42:31;21.75;;;13.98;;
69523;SDS011;56723;42.694;23.286;2022-11-06T06:44:58;20.77;;;14.75;;
69523;SDS011;56723;42.694;23.286;2022-11-06T06:47:25;21.83;;;14.30;;
69523;SDS011;56723;42.694;23.286;2022-11-06T06:49:52;18.80;;;13.43;;
69523;SDS011;56723;42.694;23.286;2022-11-06T06:52:19;18.58;;;13.40;;
69523;SDS011;56723;42.694;23.286;2022-11-06T06:54:46;21.33;;;14.13;;
69523;SDS011;56723;42.694;23.286;2022-11-06T06:57:13;23.98;;;14.40;;
69523;SDS011;56723;42.694;23.286;2022-11-06T06:59:39;20.63;;;14.02;;
69523;SDS011;56723;42.694;23.286;2022-11-06T07:02:07;17.67;;;12.50;;
69523;SDS011;56723;42.694;23.286;2022-11-06T07:04:38;24.60;;;13.40;;
69523;SDS011;56723;42.694;23.286;2022-11-06T07:07:05;21.25;;;13.43;;
69523;SDS011;56723;42.694;23.286;2022-11-06T07:09:32;20.45;;;13.38;;
69523;SDS011;56723;42.694;23.286;2022-11-06T07:11:59;20.65;;;13.00;;
69523;SDS011;56723;42.694;23.286;2022-11-06T07:14:26;24.08;;;13.50;;
69523;SDS011;56723;42.694;23.286;2022-11-06T07:16:53;19.77;;;13.02;;
69523;SDS011;56723;42.694;23.286;2022-11-06T07:19:20;20.25;;;13.25;;
69523;SDS011;56723;42.694;23.286;2022-11-06T07:21:50;27.40;;;14.02;;
69523;SDS011;56723;42.694;23.286;2022-11-06T07:24:18;21.88;;;14.00;;
69523;SDS011;56723;42.694;23.286;2022-11-06T07:26:45;22.45;;;13.13;;
69523;SDS011;56723;42.694;23.286;2022-11-06T07:29:12;16.65;;;12.55;;
69523;SDS011;56723;42.694;23.286;2022-11-06T07:31:38;18.63;;;12.15;;
69523;SDS011;56723;42.694;23.286;2022-11-06T07:34:05;20.88;;;13.05;;
69523;SDS011;56723;42.694;23.286;2022-11-06T07:36:33;18.98;;;13.23;;
69523;SDS011;56723;42.694;23.286;2022-11-06T07:39:00;19.17;;;12.60;;
69523;SDS011;56723;42.694;23.286;2022-11-06T07:41:27;21.58;;;14.20;;
69523;SDS011;56723;42.694;23.286;2022-11-06T07:43:54;19.73;;;14.32;;
69523;SDS011;56723;42.694;23.286;2022-11-06T07:46:21;23.35;;;13.95;;
69523;SDS011;56723;42.694;23.286;2022-11-06T07:48:48;20.13;;;12.38;;
69523;SDS011;56723;42.694;23.286;2022-11-06T07:51:15;22.20;;;13.30;;
69523;SDS011;56723;42.694;23.286;2022-11-06T07:53:42;19.52;;;12.50;;
69523;SDS011;56723;42.694;23.286;2022-11-06T07:56:09;19.88;;;12.23;;
69523;SDS011;56723;42.694;23.286;2022-11-06T07:58:36;21.23;;;13.73;;
69523;SDS011;56723;42.694;23.286;2022-11-06T08:01:04;19.58;;;12.38;;
69523;SDS011;56723;42.694;23.286;2022-11-06T08:03:31;19.13;;;13.48;;
69523;SDS011;56723;42.694;23.286;2022-11-06T08:06:01;19.38;;;14.35;;
69523;SDS011;56723;42.694;23.286;2022-11-06T08:08:30;31.92;;;20.15;;
69523;SDS011;56723;42.694;23.286;2022-11-06T08:11:04;19.40;;;14.63;;
69523;SDS011;56723;42.694;23.286;2022-11-06T08:13:33;24.50;;;13.90;;
69523;SDS011;56723;42.694;23.286;2022-11-06T08:16:11;23.25;;;15.07;;
69523;SDS011;56723;42.694;23.286;2022-11-06T08:18:39;18.27;;;14.45;;
69523;SDS011;56723;42.694;23.286;2022-11-06T08:21:07;24.70;;;14.77;;
69523;SDS011;56723;42.694;23.286;2022-11-06T08:23:34;19.33;;;14.63;;
69523;SDS011;56723;42.694;23.286;2022-11-06T08:26:02;20.42;;;14.70;;
69523;SDS011;56723;42.694;23.286;2022-11-06T08:28:31;21.92;;;15.45;;
69523;SDS011;56723;42.694;23.286;2022-11-06T08:31:01;27.60;;;18.48;;
69523;SDS011;56723;42.694;23.286;2022-11-06T08:33:30;23.35;;;15.48;;
69523;SDS011;56723;42.694;23.286;2022-11-06T08:35:59;22.40;;;16.77;;
69523;SDS011;56723;42.694;23.286;2022-11-06T08:38:27;21.52;;;16.23;;
69523;SDS011;56723;42.694;23.286;2022-11-06T08:40:54;26.92;;;16.13;;
69523;SDS011;56723;42.694;23.286;2022-11-06T08:43:21;24.30;;;19.08;;
69523;SDS011;56723;42.694;23.286;2022-11-06T08:45:51;22.95;;;17.67;;
69523;SDS011;56723;42.694;23.286;2022-11-06T08:48:19;26.27;;;19.45;;
69523;SDS011;56723;42.694;23.286;2022-11-06T08:50:46;27.73;;;19.88;;
69523;SDS011;56723;42.694;23.286;2022-11-06T08:53:13;28.58;;;21.45;;
69523;SDS011;56723;42.694;23.286;2022-11-06T08:55:42;26.30;;;22.42;;
69523;SDS011;56723;42.694;23.286;2022-11-06T08:58:09;31.88;;;22.70;;
69523;SDS011;56723;42.694;23.286;2022-11-06T09:00:36;26.20;;;20.20;;
69523;SDS011;56723;42.694;23.286;2022-11-06T09:03:04;27.42;;;19.70;;
69523;SDS011;56723;42.694;23.286;2022-11-06T09:05:35;27.25;;;19.85;;
69523;SDS011;56723;42.694;23.286;2022-11-06T09:08:05;34.30;;;21.20;;
69523;SDS011;56723;42.694;23.286;2022-11-06T09:10:31;27.67;;;20.52;;
69523;SDS011;56723;42.694;23.286;2022-11-06T09:12:58;29.95;;;20.00;;
69523;SDS011;56723;42.694;23.286;2022-11-06T09:15:26;29.70;;;20.05;;
69523;SDS011;56723;42.694;23.286;2022-11-06T09:17:53;25.48;;;20.00;;
69523;SDS011;56723;42.694;23.286;2022-11-06T09:20:21;24.23;;;19.52;;
69523;SDS011;56723;42.694;23.286;2022-11-06T09:22:48;25.13;;;18.23;;
69523;SDS011;56723;42.694;23.286;2022-11-06T09:25:16;27.80;;;19.35;;
69523;SDS011;56723;42.694;23.286;2022-11-06T09:27:43;22.17;;;17.05;;
69523;SDS011;56723;42.694;23.286;2022-11-06T09:30:12;26.30;;;18.23;;
69523;SDS011;56723;42.694;23.286;2022-11-06T09:32:48;22.58;;;17.40;;
69523;SDS011;56723;42.694;23.286;2022-11-06T09:35:17;25.27;;;19.00;;
69523;SDS011;56723;42.694;23.286;2022-11-06T09:37:45;22.67;;;17.58;;
69523;SDS011;56723;42.694;23.286;2022-11-06T09:40:19;26.20;;;18.33;;
69523;SDS011;56723;42.694;23.286;2022-11-06T09:42:57;23.23;;;17.05;;
69523;SDS011;56723;42.694;23.286;2022-11-06T09:45:27;21.60;;;15.85;;
69523;SDS011;56723;42.694;23.286;2022-11-06T09:50:48;20.90;;;17.10;;
69523;SDS011;56723;42.694;23.286;2022-11-06T09:53:31;20.35;;;17.83;;
69523;SDS011;56723;42.694;23.286;2022-11-06T09:56:02;18.80;;;15.18;;
69523;SDS011;56723;42.694;23.286;2022-11-06T09:58:34;21.23;;;16.70;;
69523;SDS011;56723;42.694;23.286;2022-11-06T10:01:15;17.77;;;14.90;;
69523;SDS011;56723;42.694;23.286;2022-11-06T10:03:52;17.85;;;15.73;;
69523;SDS011;56723;42.694;23.286;2022-11-06T10:06:22;15.73;;;13.98;;
69523;SDS011;56723;42.694;23.286;2022-11-06T10:08:50;17.73;;;15.83;;
69523;SDS011;56723;42.694;23.286;2022-11-06T10:16:53;13.90;;;12.43;;
69523;SDS011;56723;42.694;23.286;2022-11-06T10:19:45;15.77;;;13.68;;
69523;SDS011;56723;42.694;23.286;2022-11-06T10:22:34;15.30;;;11.93;;
69523;SDS011;56723;42.694;23.286;2022-11-06T10:25:18;16.73;;;13.98;;
69523;SDS011;56723;42.694;23.286;2022-11-06T10:30:47;14.20;;;10.68;;
69523;SDS011;56723;42.694;23.286;2022-11-06T10:36:37;14.50;;;12.02;;
69523;SDS011;56723;42.694;23.286;2022-11-06T10:39:08;13.88;;;11.35;;
69523;SDS011;56723;42.694;23.286;2022-11-06T10:41:41;12.70;;;11.38;;
69523;SDS011;56723;42.694;23.286;2022-11-06T10:44:16;13.98;;;12.38;;
69523;SDS011;56723;42.694;23.286;2022-11-06T10:47:04;13.23;;;11.27;;
69523;SDS011;56723;42.694;23.286;2022-11-06T10:49:44;12.98;;;10.63;;
69523;SDS011;56723;42.694;23.286;2022-11-06T10:52:30;14.45;;;9.43;;
69523;SDS011;56723;42.694;23.286;2022-11-06T10:57:55;10.05;;;8.63;;
69523;SDS011;56723;42.694;23.286;2022-11-06T11:00:31;8.90;;;7.93;;
69523;SDS011;56723;42.694;23.286;2022-11-06T11:03:00;8.20;;;7.40;;
69523;SDS011;56723;42.694;23.286;2022-11-06T11:05:37;10.35;;;8.07;;
69523;SDS011;56723;42.694;23.286;2022-11-06T11:08:06;11.95;;;9.85;;
69523;SDS011;56723;42.694;23.286;2022-11-06T11:10:59;14.52;;;9.55;;
69523;SDS011;56723;42.694;23.286;2022-11-06T11:13:31;9.82;;;8.88;;
69523;SDS011;56723;42.694;23.286;2022-11-06T11:18:28;11.27;;;9.02;;
69523;SDS011;56723;42.694;23.286;2022-11-06T11:21:31;9.75;;;7.90;;
69523;SDS011;56723;42.694;23.286;2022-11-06T11:24:10;11.18;;;7.72;;
69523;SDS011;56723;42.694;23.286;2022-11-06T11:26:44;9.10;;;8.18;;
69523;SDS011;56723;42.694;23.286;2022-11-06T11:29:14;12.40;;;8.55;;
69523;SDS011;56723;42.694;23.286;2022-11-06T11:31:46;9.98;;;8.20;;
69523;SDS011;56723;42.694;23.286;2022-11-06T11:34:19;13.10;;;10.77;;
69523;SDS011;56723;42.694;23.286;2022-11-06T11:37:01;14.43;;;10.77;;
69523;SDS011;56723;42.694;23.286;2022-11-06T11:39:31;13.93;;;12.32;;
69523;SDS011;56723;42.694;23.286;2022-11-06T11:47:44;14.45;;;11.57;;
69523;SDS011;56723;42.694;23.286;2022-11-06T11:50:31;19.23;;;13.90;;
69523;SDS011;56723;42.694;23.286;2022-11-06T11:53:09;14.75;;;12.77;;
69523;SDS011;56723;42.694;23.286;2022-11-06T11:55:46;15.35;;;12.90;;
69523;SDS011;56723;42.694;23.286;2022-11-06T11:58:19;17.42;;;13.70;;
69523;SDS011;56723;42.694;23.286;2022-11-06T12:00:59;15.02;;;12.52;;
69523;SDS011;56723;42.694;23.286;2022-11-06T12:03:38;15.00;;;11.80;;
69523;SDS011;56723;42.694;23.286;2022-11-06T12:06:12;16.27;;;12.45;;
69523;SDS011;56723;42.694;23.286;2022-11-06T12:08:45;15.13;;;11.98;;
69523;SDS011;56723;42.694;23.286;2022-11-06T12:11:20;16.17;;;12.98;;
69523;SDS011;56723;42.694;23.286;2022-11-06T12:17:16;14.77;;;10.55;;
69523;SDS011;56723;42.694;23.286;2022-11-06T12:19:50;15.15;;;10.23;;
69523;SDS011;56723;42.694;23.286;2022-11-06T12:22:23;13.60;;;9.38;;
69523;SDS011;56723;42.694;23.286;2022-11-06T12:25:04;11.20;;;8.55;;
69523;SDS011;56723;42.694;23.286;2022-11-06T12:27:37;9.15;;;7.13;;
69523;SDS011;56723;42.694;23.286;2022-11-06T12:30:15;11.60;;;8.75;;
69523;SDS011;56723;42.694;23.286;2022-11-06T12:35:30;10.27;;;8.25;;
69523;SDS011;56723;42.694;23.286;2022-11-06T12:41:11;7.60;;;6.70;;
69523;SDS011;56723;42.694;23.286;2022-11-06T12:43:45;9.48;;;7.20;;
69523;SDS011;56723;42.694;23.286;2022-11-06T13:02:33;9.15;;;6.88;;
69523;SDS011;56723;42.694;23.286;2022-11-06T13:10:29;9.00;;;6.97;;
69523;SDS011;56723;42.694;23.286;2022-11-06T13:15:55;9.20;;;6.88;;
69523;SDS011;56723;42.694;23.286;2022-11-06T13:24:21;11.25;;;7.05;;
69523;SDS011;56723;42.694;23.286;2022-11-06T13:26:58;11.02;;;6.70;;
69523;SDS011;56723;42.694;23.286;2022-11-06T13:29:35;10.02;;;6.75;;
69523;SDS011;56723;42.694;23.286;2022-11-06T13:32:04;9.07;;;6.85;;
69523;SDS011;56723;42.694;23.286;2022-11-06T13:34:37;10.38;;;6.90;;
69523;SDS011;56723;42.694;23.286;2022-11-06T13:37:14;11.32;;;6.80;;
69523;SDS011;56723;42.694;23.286;2022-11-06T13:39:48;9.15;;;6.78;;
69523;SDS011;56723;42.694;23.286;2022-11-06T13:42:35;10.15;;;7.75;;
69523;SDS011;56723;42.694;23.286;2022-11-06T13:45:07;9.05;;;7.45;;
69523;SDS011;56723;42.694;23.286;2022-11-06T13:50:31;10.00;;;7.13;;
69523;SDS011;56723;42.694;23.286;2022-11-06T13:53:29;10.75;;;6.40;;
69523;SDS011;56723;42.694;23.286;2022-11-06T13:59:20;9.20;;;7.22;;
69523;SDS011;56723;42.694;23.286;2022-11-06T14:07:19;12.20;;;8.85;;
69523;SDS011;56723;42.694;23.286;2022-11-06T14:09:48;8.20;;;6.32;;
69523;SDS011;56723;42.694;23.286;2022-11-06T14:12:19;9.45;;;7.03;;
69523;SDS011;56723;42.694;23.286;2022-11-06T14:14:48;10.27;;;7.18;;
69523;SDS011;56723;42.694;23.286;2022-11-06T14:17:21;7.38;;;5.90;;
69523;SDS011;56723;42.694;23.286;2022-11-06T14:22:30;9.30;;;5.90;;
69523;SDS011;56723;42.694;23.286;2022-11-06T14:24:58;11.38;;;7.50;;
69523;SDS011;56723;42.694;23.286;2022-11-06T14:32:34;10.70;;;7.22;;
69523;SDS011;56723;42.694;23.286;2022-11-06T14:40:35;7.75;;;5.85;;
69523;SDS011;56723;42.694;23.286;2022-11-06T14:48:35;10.52;;;6.47;;
69523;SDS011;56723;42.694;23.286;2022-11-06T14:51:05;9.70;;;6.63;;
69523;SDS011;56723;42.694;23.286;2022-11-06T14:56:31;6.93;;;4.28;;
69523;SDS011;56723;42.694;23.286;2022-11-06T14:59:03;6.82;;;4.70;;
69523;SDS011;56723;42.694;23.286;2022-11-06T15:01:34;9.45;;;4.75;;
69523;SDS011;56723;42.694;23.286;2022-11-06T15:06:40;4.32;;;3.10;;
69523;SDS011;56723;42.694;23.286;2022-11-06T15:16:54;4.70;;;2.95;;
69523;SDS011;56723;42.694;23.286;2022-11-06T15:19:33;4.68;;;2.67;;
69523;SDS011;56723;42.694;23.286;2022-11-06T15:24:58;5.37;;;3.37;;
69523;SDS011;56723;42.694;23.286;2022-11-06T15:27:32;6.22;;;3.40;;
69523;SDS011;56723;42.694;23.286;2022-11-06T15:30:08;4.35;;;3.40;;
69523;SDS011;56723;42.694;23.286;2022-11-06T15:32:41;6.97;;;5.47;;
69523;SDS011;56723;42.694;23.286;2022-11-06T15:35:15;5.13;;;4.00;;
69523;SDS011;56723;42.694;23.286;2022-11-06T15:37:45;5.22;;;3.83;;
69523;SDS011;56723;42.694;23.286;2022-11-06T15:40:22;6.55;;;3.70;;
69523;SDS011;56723;42.694;23.286;2022-11-06T15:46:13;5.65;;;3.97;;
69523;SDS011;56723;42.694;23.286;2022-11-06T15:48:45;5.10;;;4.25;;
69523;SDS011;56723;42.694;23.286;2022-11-06T15:51:22;4.90;;;3.97;;
69523;SDS011;56723;42.694;23.286;2022-11-06T15:53:53;5.03;;;3.85;;
69523;SDS011;56723;42.694;23.286;2022-11-06T15:56:30;7.95;;;3.55;;
69523;SDS011;56723;42.694;23.286;2022-11-06T15:59:04;6.53;;;3.42;;
69523;SDS011;56723;42.694;23.286;2022-11-06T16:01:36;6.75;;;4.65;;
69523;SDS011;56723;42.694;23.286;2022-11-06T16:04:05;5.70;;;3.90;;
69523;SDS011;56723;42.694;23.286;2022-11-06T16:06:41;5.75;;;3.80;;
69523;SDS011;56723;42.694;23.286;2022-11-06T16:09:14;5.60;;;4.15;;
69523;SDS011;56723;42.694;23.286;2022-11-06T16:11:47;7.13;;;4.57;;
69523;SDS011;56723;42.694;23.286;2022-11-06T16:14:17;5.95;;;4.03;;
69523;SDS011;56723;42.694;23.286;2022-11-06T16:16:48;4.35;;;3.67;;
69523;SDS011;56723;42.694;23.286;2022-11-06T16:21:46;7.10;;;4.95;;
69523;SDS011;56723;42.694;23.286;2022-11-06T16:24:54;8.98;;;5.38;;
69523;SDS011;56723;42.694;23.286;2022-11-06T16:27:44;6.90;;;6.05;;
69523;SDS011;56723;42.694;23.286;2022-11-06T16:30:20;9.43;;;6.25;;
69523;SDS011;56723;42.694;23.286;2022-11-06T16:32:51;9.07;;;5.82;;
69523;SDS011;56723;42.694;23.286;2022-11-06T16:35:34;8.23;;;5.53;;
69523;SDS011;56723;42.694;23.286;2022-11-06T16:38:35;7.72;;;6.13;;
69523;SDS011;56723;42.694;23.286;2022-11-06T16:41:08;7.43;;;6.43;;
69523;SDS011;56723;42.694;23.286;2022-11-06T16:43:37;9.57;;;6.55;;
69523;SDS011;56723;42.694;23.286;2022-11-06T16:46:05;15.95;;;10.85;;
69523;SDS011;56723;42.694;23.286;2022-11-06T16:53:58;17.38;;;12.65;;
69523;SDS011;56723;42.694;23.286;2022-11-06T16:56:30;13.57;;;11.65;;
69523;SDS011;56723;42.694;23.286;2022-11-06T16:59:06;20.08;;;13.82;;
69523;SDS011;56723;42.694;23.286;2022-11-06T17:01:41;16.45;;;12.30;;
69523;SDS011;56723;42.694;23.286;2022-11-06T17:04:22;16.70;;;12.23;;
69523;SDS011;56723;42.694;23.286;2022-11-06T17:06:51;15.23;;;10.52;;
69523;SDS011;56723;42.694;23.286;2022-11-06T17:12:00;14.68;;;10.98;;
69523;SDS011;56723;42.694;23.286;2022-11-06T17:14:28;16.00;;;10.82;;
69523;SDS011;56723;42.694;23.286;2022-11-06T17:16:57;17.23;;;10.77;;
69523;SDS011;56723;42.694;23.286;2022-11-06T17:21:53;12.77;;;10.52;;
69523;SDS011;56723;42.694;23.286;2022-11-06T17:24:21;10.63;;;8.50;;